Time;durP1;ratioP1;P1;durP2;ratioP2;P2;SDS_P1;SDS_P2;PMS_P1;PMS_P2;Temp;Humidity;BMP_temperature;BMP_pressure;BME280_temperature;BME280_humidity;BME280_pressure;Samples;Min_cycle;Max_cycle;Signal;HPM_P1;HPM_P2
2023/01/05 00:01:37;;;;;;;36.00;5.03;;;;;;;;;;5105952;27;20035;-69
2023/01/05 00:04:04;;;;;;;29.20;4.65;;;;;;;;;;5104082;27;20142;-69
2023/01/05 00:06:30;;;;;;;34.35;5.63;;;;;;;;;;5101934;27;20491;-69
2023/01/05 00:08:58;;;;;;;33.55;5.93;;;;;;;;;;5102812;27;20499;-69
2023/01/05 00:22:33;;;;;;;33.45;5.82;;;;;;;;;;5105571;27;20130;-69
2023/01/05 00:25:02;;;;;;;40.85;5.15;;;;;;;;;;5108898;27;20671;-69
2023/01/05 00:27:29;;;;;;;32.25;5.55;;;;;;;;;;5104259;27;20422;-69
2023/01/05 00:29:55;;;;;;;43.92;8.40;;;;;;;;;;5102555;27;20058;-69
2023/01/05 00:32:21;;;;;;;34.65;5.13;;;;;;;;;;5097367;27;20071;-69
2023/01/05 00:34:49;;;;;;;31.50;4.95;;;;;;;;;;5104700;27;20467;-68
2023/01/05 00:37:16;;;;;;;30.98;4.78;;;;;;;;;;5104714;27;20189;-68
2023/01/05 00:39:42;;;;;;;30.75;5.22;;;;;;;;;;5103644;27;20071;-68
2023/01/05 00:42:08;;;;;;;33.55;5.80;;;;;;;;;;5105049;27;20155;-68
2023/01/05 00:44:34;;;;;;;37.03;5.68;;;;;;;;;;5105009;27;20048;-68
2023/01/05 00:47:01;;;;;;;30.48;4.90;;;;;;;;;;5105159;27;20118;-68
2023/01/05 00:49:27;;;;;;;31.75;4.97;;;;;;;;;;5102234;28;20071;-68
2023/01/05 00:51:53;;;;;;;26.40;5.95;;;;;;;;;;5103378;27;20057;-68
2023/01/05 00:54:19;;;;;;;31.65;5.18;;;;;;;;;;5100177;28;20040;-68
2023/01/05 00:56:48;;;;;;;35.92;5.18;;;;;;;;;;5103914;28;20084;-68
2023/01/05 00:59:14;;;;;;;31.40;5.85;;;;;;;;;;5101262;28;20043;-68
2023/01/05 01:01:41;;;;;;;30.30;4.47;;;;;;;;;;5101759;28;20067;-68
2023/01/05 01:04:07;;;;;;;28.77;4.63;;;;;;;;;;5101098;28;20366;-68
2023/01/05 01:06:33;;;;;;;32.38;4.68;;;;;;;;;;5098569;28;20047;-68
2023/01/05 01:08:59;;;;;;;22.65;4.72;;;;;;;;;;5099422;28;20097;-68
2023/01/05 01:11:25;;;;;;;31.05;4.85;;;;;;;;;;5096873;28;20100;-68
2023/01/05 01:13:51;;;;;;;32.85;5.03;;;;;;;;;;5100135;28;20047;-68
2023/01/05 01:16:19;;;;;;;24.48;4.82;;;;;;;;;;5097584;28;20475;-68
2023/01/05 01:18:45;;;;;;;26.77;4.88;;;;;;;;;;5096824;28;20063;-68
2023/01/05 01:21:11;;;;;;;26.58;5.10;;;;;;;;;;5101666;28;20043;-68
2023/01/05 01:23:38;;;;;;;29.95;4.68;;;;;;;;;;5095786;28;20080;-68
2023/01/05 01:26:06;;;;;;;23.85;4.70;;;;;;;;;;5101424;28;20035;-68
2023/01/05 01:28:32;;;;;;;22.08;4.90;;;;;;;;;;5102240;28;20036;-68
2023/01/05 01:30:58;;;;;;;29.73;5.88;;;;;;;;;;5101396;27;20054;-68
2023/01/05 01:33:24;;;;;;;27.58;3.95;;;;;;;;;;5098023;28;20058;-68
2023/01/05 01:35:50;;;;;;;33.95;5.20;;;;;;;;;;5096999;28;20044;-68
2023/01/05 01:38:17;;;;;;;33.20;5.82;;;;;;;;;;5101436;27;20043;-68
2023/01/05 01:40:44;;;;;;;34.78;7.47;;;;;;;;;;5097569;28;20043;-68
2023/01/05 01:43:16;;;;;;;36.70;5.30;;;;;;;;;;5101578;28;20451;-68
2023/01/05 01:45:42;;;;;;;30.08;5.03;;;;;;;;;;5100963;28;20478;-68
2023/01/05 01:48:11;;;;;;;29.88;5.88;;;;;;;;;;5098057;27;20058;-68
2023/01/05 01:50:40;;;;;;;32.95;5.65;;;;;;;;;;5097396;28;20055;-68
2023/01/05 01:53:10;;;;;;;32.28;4.80;;;;;;;;;;5096972;28;20074;-69
2023/01/05 01:55:38;;;;;;;34.42;6.03;;;;;;;;;;5102077;28;21321;-69
2023/01/05 01:58:06;;;;;;;34.20;4.55;;;;;;;;;;5102251;27;20051;-69
2023/01/05 02:00:32;;;;;;;29.23;4.38;;;;;;;;;;5100418;28;20415;-69
2023/01/05 02:02:58;;;;;;;34.15;5.55;;;;;;;;;;5099657;28;20391;-69
2023/01/05 02:05:28;;;;;;;30.98;5.00;;;;;;;;;;5101318;28;20038;-69
2023/01/05 02:07:54;;;;;;;28.40;6.75;;;;;;;;;;5098289;28;20048;-69
2023/01/05 02:10:27;;;;;;;31.63;5.10;;;;;;;;;;5100787;28;20420;-69
2023/01/05 02:13:00;;;;;;;27.75;4.85;;;;;;;;;;5098778;28;20535;-69
2023/01/05 02:15:36;;;;;;;29.10;5.75;;;;;;;;;;5101117;28;20028;-69
2023/01/05 02:18:08;;;;;;;43.25;6.60;;;;;;;;;;5096516;28;20040;-69
2023/01/05 02:20:35;;;;;;;32.63;5.35;;;;;;;;;;5094413;28;20058;-70
2023/01/05 02:23:15;;;;;;;28.38;5.82;;;;;;;;;;5094751;28;20032;-69
2023/01/05 02:25:42;;;;;;;36.10;5.53;;;;;;;;;;5095935;28;20035;-69
2023/01/05 02:28:27;;;;;;;30.75;6.75;;;;;;;;;;5100685;28;20403;-69
2023/01/05 02:31:00;;;;;;;35.90;7.00;;;;;;;;;;5103118;28;20066;-69
2023/01/05 02:33:32;;;;;;;27.85;5.55;;;;;;;;;;5098404;28;20043;-70
2023/01/05 02:36:04;;;;;;;41.28;6.57;;;;;;;;;;5098875;28;20506;-69
2023/01/05 02:38:39;;;;;;;34.63;6.25;;;;;;;;;;5096197;28;20038;-69
2023/01/05 02:41:14;;;;;;;35.88;6.50;;;;;;;;;;5099457;28;20104;-69
2023/01/05 02:43:43;;;;;;;37.33;5.60;;;;;;;;;;5097435;28;20047;-69
2023/01/05 02:46:09;;;;;;;31.52;5.43;;;;;;;;;;5100810;28;20043;-69
2023/01/05 02:48:35;;;;;;;42.70;7.32;;;;;;;;;;5098844;28;20043;-69
2023/01/05 02:51:05;;;;;;;29.70;4.50;;;;;;;;;;5098344;28;20109;-69
2023/01/05 02:53:33;;;;;;;38.65;6.80;;;;;;;;;;5099120;28;20127;-69
2023/01/05 02:56:02;;;;;;;28.55;5.70;;;;;;;;;;5099679;28;20135;-69
2023/01/05 02:58:32;;;;;;;40.72;6.13;;;;;;;;;;5099953;28;20058;-69
2023/01/05 03:01:02;;;;;;;40.55;5.53;;;;;;;;;;5097073;28;20064;-69
2023/01/05 03:03:31;;;;;;;33.22;6.07;;;;;;;;;;5101318;28;20057;-71
2023/01/05 03:06:01;;;;;;;34.30;6.03;;;;;;;;;;5101107;28;20198;-69
2023/01/05 03:08:30;;;;;;;43.03;6.40;;;;;;;;;;5097838;28;20445;-69
2023/01/05 03:13:47;;;;;;;27.50;4.07;;;;;;;;;;5093131;28;20074;-69
2023/01/05 03:16:16;;;;;;;35.20;7.28;;;;;;;;;;5099341;28;20460;-69
2023/01/05 03:35:33;;;;;;;27.33;5.72;;;;;;;;;;5101124;28;20050;-69
2023/01/05 03:38:02;;;;;;;34.85;5.25;;;;;;;;;;5102022;27;20051;-69
2023/01/05 03:40:29;;;;;;;31.10;6.18;;;;;;;;;;5102058;28;20355;-69
2023/01/05 03:42:56;;;;;;;31.30;5.80;;;;;;;;;;5106558;27;20501;-69
2023/01/05 03:45:24;;;;;;;26.05;4.45;;;;;;;;;;5103819;28;20255;-69
2023/01/05 03:47:50;;;;;;;30.52;4.78;;;;;;;;;;5103636;27;20051;-69
2023/01/05 03:50:16;;;;;;;34.88;5.43;;;;;;;;;;5107303;28;20051;-69
2023/01/05 03:52:42;;;;;;;33.75;5.85;;;;;;;;;;5097166;28;20036;-69
2023/01/05 03:55:09;;;;;;;34.30;6.65;;;;;;;;;;5106137;27;20043;-69
2023/01/05 03:57:35;;;;;;;33.25;6.55;;;;;;;;;;5105588;28;20079;-69
2023/01/05 04:00:01;;;;;;;29.27;4.97;;;;;;;;;;5105664;27;20047;-69
2023/01/05 04:02:28;;;;;;;26.83;5.88;;;;;;;;;;5102450;28;20043;-69
2023/01/05 04:04:54;;;;;;;44.55;5.15;;;;;;;;;;5103171;27;20073;-69
2023/01/05 04:07:20;;;;;;;29.27;6.00;;;;;;;;;;5103816;28;20054;-69
2023/01/05 04:09:46;;;;;;;29.30;5.28;;;;;;;;;;5102961;28;20047;-69
2023/01/05 04:12:12;;;;;;;29.67;4.97;;;;;;;;;;5098486;28;20042;-69
2023/01/05 04:14:39;;;;;;;25.65;5.32;;;;;;;;;;5099620;28;20051;-69
2023/01/05 04:17:05;;;;;;;31.95;6.00;;;;;;;;;;5103914;28;20036;-69
2023/01/05 04:19:31;;;;;;;27.30;4.43;;;;;;;;;;5101036;28;20062;-69
2023/01/05 04:21:57;;;;;;;25.65;4.75;;;;;;;;;;5107236;28;20395;-69
2023/01/05 04:24:23;;;;;;;29.25;5.18;;;;;;;;;;5106005;27;20486;-69
2023/01/05 04:26:49;;;;;;;36.38;4.65;;;;;;;;;;5103572;28;20075;-69
2023/01/05 04:29:15;;;;;;;30.10;5.80;;;;;;;;;;5104465;28;20039;-69
2023/01/05 04:31:41;;;;;;;26.38;5.07;;;;;;;;;;5102343;27;20128;-69
2023/01/05 04:34:08;;;;;;;28.15;5.75;;;;;;;;;;5102563;27;20187;-69
2023/01/05 04:36:34;;;;;;;33.55;5.72;;;;;;;;;;5105514;28;20036;-69
2023/01/05 04:39:00;;;;;;;32.47;4.82;;;;;;;;;;5105589;28;20040;-69
2023/01/05 04:41:26;;;;;;;33.38;6.50;;;;;;;;;;5104406;28;20047;-69
2023/01/05 04:43:52;;;;;;;36.72;5.78;;;;;;;;;;5106782;28;20097;-69
2023/01/05 04:46:18;;;;;;;26.83;5.10;;;;;;;;;;5106814;28;20055;-69
2023/01/05 04:48:44;;;;;;;26.65;4.82;;;;;;;;;;5105400;27;20043;-69
2023/01/05 04:51:10;;;;;;;28.75;5.00;;;;;;;;;;5104556;27;20119;-69
2023/01/05 04:53:37;;;;;;;25.55;4.30;;;;;;;;;;5100566;28;20055;-69
2023/01/05 04:56:03;;;;;;;27.10;5.55;;;;;;;;;;5100953;28;20032;-69
2023/01/05 04:58:29;;;;;;;35.28;5.47;;;;;;;;;;5101966;28;20048;-69
2023/01/05 05:00:55;;;;;;;34.38;5.32;;;;;;;;;;5101512;28;20166;-69
2023/01/05 05:03:21;;;;;;;39.10;6.03;;;;;;;;;;5102166;28;20143;-69
2023/01/05 05:05:47;;;;;;;30.67;5.05;;;;;;;;;;5107196;28;20040;-69
2023/01/05 05:08:14;;;;;;;33.13;6.10;;;;;;;;;;5105185;28;20051;-69
2023/01/05 05:10:40;;;;;;;30.42;4.93;;;;;;;;;;5101140;28;20679;-69
2023/01/05 05:13:06;;;;;;;26.80;4.68;;;;;;;;;;5100432;28;20047;-69
2023/01/05 05:15:32;;;;;;;26.67;4.85;;;;;;;;;;5098946;28;20047;-69
2023/01/05 05:17:58;;;;;;;28.65;5.85;;;;;;;;;;5098876;28;20131;-69
2023/01/05 05:20:24;;;;;;;26.75;5.43;;;;;;;;;;5096087;28;20051;-69
2023/01/05 05:22:50;;;;;;;33.10;5.07;;;;;;;;;;5098653;28;20052;-69
2023/01/05 05:25:16;;;;;;;35.60;4.75;;;;;;;;;;5098440;28;20058;-69
2023/01/05 05:27:43;;;;;;;30.83;5.38;;;;;;;;;;5097563;28;20079;-69
2023/01/05 05:30:09;;;;;;;39.00;5.38;;;;;;;;;;5100758;28;20038;-69
2023/01/05 05:32:35;;;;;;;25.63;5.75;;;;;;;;;;5100801;28;20054;-69
2023/01/05 05:35:01;;;;;;;31.77;5.13;;;;;;;;;;5101215;28;20067;-69
2023/01/05 05:37:27;;;;;;;34.60;5.90;;;;;;;;;;5100710;28;20136;-69
2023/01/05 05:39:54;;;;;;;27.23;5.32;;;;;;;;;;5103628;28;20444;-68
2023/01/05 05:42:20;;;;;;;24.02;5.10;;;;;;;;;;5098556;28;20070;-69
2023/01/05 05:44:46;;;;;;;26.20;4.95;;;;;;;;;;5098961;27;20134;-69
2023/01/05 05:47:12;;;;;;;33.15;5.75;;;;;;;;;;5093127;27;20052;-69
2023/01/05 05:49:38;;;;;;;24.20;4.35;;;;;;;;;;5094447;28;20088;-69
2023/01/05 05:52:04;;;;;;;27.65;4.25;;;;;;;;;;5094727;28;20040;-69
2023/01/05 05:54:30;;;;;;;27.38;5.22;;;;;;;;;;5100983;28;20055;-69
2023/01/05 05:56:57;;;;;;;27.85;4.38;;;;;;;;;;5102009;28;20134;-69
2023/01/05 05:59:23;;;;;;;30.42;5.35;;;;;;;;;;5101628;28;20073;-69
2023/01/05 06:01:51;;;;;;;25.85;5.70;;;;;;;;;;5095307;28;20040;-69
2023/01/05 06:04:17;;;;;;;27.88;4.82;;;;;;;;;;5098936;28;20478;-69
2023/01/05 06:06:43;;;;;;;28.90;4.50;;;;;;;;;;5097493;28;20644;-69
2023/01/05 06:09:09;;;;;;;35.05;5.07;;;;;;;;;;5081102;28;20039;-69
2023/01/05 06:11:35;;;;;;;30.33;5.57;;;;;;;;;;5100017;28;20044;-69
2023/01/05 06:14:02;;;;;;;33.63;6.90;;;;;;;;;;5095723;28;20043;-69
2023/01/05 06:16:28;;;;;;;36.53;6.43;;;;;;;;;;5099775;28;20550;-69
2023/01/05 06:18:54;;;;;;;40.47;5.75;;;;;;;;;;5093699;28;20079;-69
2023/01/05 06:21:22;;;;;;;33.70;6.00;;;;;;;;;;5097226;28;20088;-69
2023/01/05 06:23:48;;;;;;;32.30;6.45;;;;;;;;;;5099299;28;20047;-69
2023/01/05 06:26:14;;;;;;;37.15;5.05;;;;;;;;;;5101504;28;20039;-69
2023/01/05 06:28:40;;;;;;;25.85;5.13;;;;;;;;;;5101508;28;20123;-69
2023/01/05 06:31:06;;;;;;;42.60;6.20;;;;;;;;;;5101542;28;20391;-69
2023/01/05 06:33:32;;;;;;;35.38;4.90;;;;;;;;;;5100184;28;20548;-69
2023/01/05 06:35:59;;;;;;;29.60;5.53;;;;;;;;;;5100296;28;20048;-69
2023/01/05 06:38:25;;;;;;;37.33;6.18;;;;;;;;;;5099785;28;20032;-69
2023/01/05 06:40:51;;;;;;;30.52;5.22;;;;;;;;;;5102900;28;20051;-69
2023/01/05 06:43:18;;;;;;;31.10;5.28;;;;;;;;;;5100628;28;20067;-69
2023/01/05 06:45:44;;;;;;;41.58;6.00;;;;;;;;;;5100570;28;20043;-69
2023/01/05 06:48:10;;;;;;;36.05;6.70;;;;;;;;;;5099837;28;20488;-69
2023/01/05 06:50:36;;;;;;;30.17;5.15;;;;;;;;;;5095168;28;20130;-69
2023/01/05 06:53:02;;;;;;;38.33;6.13;;;;;;;;;;5110786;28;20040;-69
2023/01/05 06:55:28;;;;;;;25.92;5.03;;;;;;;;;;5111571;28;20115;-69
2023/01/05 06:57:55;;;;;;;39.75;6.03;;;;;;;;;;5113492;27;20467;-69
2023/01/05 07:00:21;;;;;;;36.58;5.32;;;;;;;;;;5111718;28;20050;-69
2023/01/05 07:02:47;;;;;;;34.58;6.22;;;;;;;;;;5108178;28;20035;-69
2023/01/05 07:05:13;;;;;;;36.35;5.97;;;;;;;;;;5110866;28;20055;-69
2023/01/05 07:07:39;;;;;;;38.65;5.63;;;;;;;;;;5098292;28;20085;-69
2023/01/05 07:10:06;;;;;;;35.65;5.40;;;;;;;;;;5100935;28;20074;-69
2023/01/05 07:12:32;;;;;;;39.80;6.50;;;;;;;;;;5099325;28;20043;-69
2023/01/05 07:14:58;;;;;;;31.05;5.20;;;;;;;;;;5100686;28;20051;-69
2023/01/05 07:17:25;;;;;;;27.30;5.45;;;;;;;;;;5100894;28;20055;-69
2023/01/05 07:19:51;;;;;;;38.75;5.50;;;;;;;;;;5099404;28;20168;-69
2023/01/05 07:22:17;;;;;;;29.35;5.18;;;;;;;;;;5101527;28;20055;-69
2023/01/05 07:24:43;;;;;;;26.55;6.38;;;;;;;;;;5104434;28;20040;-69
2023/01/05 07:27:09;;;;;;;29.20;4.72;;;;;;;;;;5104959;27;20391;-69
2023/01/05 07:29:35;;;;;;;29.30;4.32;;;;;;;;;;5098946;28;20047;-69
2023/01/05 07:32:02;;;;;;;33.83;4.95;;;;;;;;;;5105058;28;20065;-69
2023/01/05 07:34:28;;;;;;;27.55;5.13;;;;;;;;;;5101672;28;20070;-69
2023/01/05 07:36:54;;;;;;;41.72;6.40;;;;;;;;;;5106071;27;20036;-69
2023/01/05 07:39:20;;;;;;;33.08;6.05;;;;;;;;;;5100517;27;20043;-69
2023/01/05 07:41:46;;;;;;;33.03;5.47;;;;;;;;;;5104354;28;20043;-69
2023/01/05 07:44:12;;;;;;;25.35;5.10;;;;;;;;;;5100819;28;20055;-69
2023/01/05 07:46:39;;;;;;;33.90;5.03;;;;;;;;;;5099973;28;20496;-69
2023/01/05 07:49:05;;;;;;;40.70;5.80;;;;;;;;;;5100990;27;20054;-69
2023/01/05 07:51:31;;;;;;;28.05;4.88;;;;;;;;;;5098841;27;20040;-73
2023/01/05 07:53:58;;;;;;;37.95;5.72;;;;;;;;;;5102174;27;20462;-73
2023/01/05 07:56:24;;;;;;;34.75;5.25;;;;;;;;;;5108458;28;20502;-71
2023/01/05 07:58:50;;;;;;;31.27;5.07;;;;;;;;;;5110415;28;20355;-69
2023/01/05 08:01:17;;;;;;;37.05;5.93;;;;;;;;;;5109426;28;20036;-69
2023/01/05 08:03:43;;;;;;;39.20;7.10;;;;;;;;;;5107237;28;21185;-68
2023/01/05 08:06:10;;;;;;;34.25;5.45;;;;;;;;;;5108285;28;20043;-68
2023/01/05 08:08:36;;;;;;;32.20;5.32;;;;;;;;;;5109696;28;20483;-69
2023/01/05 08:11:03;;;;;;;30.00;4.82;;;;;;;;;;5110454;28;20040;-69
2023/01/05 08:16:14;;;;;;;31.60;5.57;;;;;;;;;;5107122;28;20048;-68
2023/01/05 08:18:40;;;;;;;28.88;5.85;;;;;;;;;;5107654;28;20044;-68
2023/01/05 08:21:08;;;;;;;36.25;5.65;;;;;;;;;;5106356;28;20048;-68
2023/01/05 08:23:35;;;;;;;30.48;5.68;;;;;;;;;;5107446;28;20051;-68
2023/01/05 08:26:04;;;;;;;31.00;5.30;;;;;;;;;;5110471;28;20044;-69
2023/01/05 08:28:30;;;;;;;30.73;5.00;;;;;;;;;;5104790;28;20062;-68
2023/01/05 08:31:01;;;;;;;38.90;5.97;;;;;;;;;;5099631;28;20161;-69
2023/01/05 08:33:28;;;;;;;32.42;5.32;;;;;;;;;;5108811;28;20100;-69
2023/01/05 08:35:54;;;;;;;34.97;5.63;;;;;;;;;;5109864;28;20036;-68
2023/01/05 08:38:21;;;;;;;38.15;5.75;;;;;;;;;;5103207;28;20092;-68
2023/01/05 08:40:47;;;;;;;41.17;5.60;;;;;;;;;;5110028;28;20055;-68
2023/01/05 08:43:13;;;;;;;45.53;7.20;;;;;;;;;;5108766;28;20096;-68
2023/01/05 08:45:39;;;;;;;32.50;5.32;;;;;;;;;;5108922;28;20051;-68
2023/01/05 08:48:08;;;;;;;29.00;4.22;;;;;;;;;;5110572;28;20428;-69
2023/01/05 08:50:35;;;;;;;26.05;4.63;;;;;;;;;;5109605;28;20797;-68
2023/01/05 08:53:01;;;;;;;31.83;4.03;;;;;;;;;;5087492;28;20050;-68
2023/01/05 08:55:27;;;;;;;27.85;4.60;;;;;;;;;;5107900;28;20035;-68
2023/01/05 08:57:55;;;;;;;31.95;5.78;;;;;;;;;;5090119;28;20085;-67
2023/01/05 09:00:21;;;;;;;27.85;5.55;;;;;;;;;;5089149;28;20047;-68
2023/01/05 09:02:48;;;;;;;23.45;4.05;;;;;;;;;;5109398;28;20147;-68
2023/01/05 09:05:14;;;;;;;32.63;4.65;;;;;;;;;;5109266;27;20075;-68
2023/01/05 09:07:40;;;;;;;30.30;4.25;;;;;;;;;;5086410;28;20142;-69
2023/01/05 09:10:07;;;;;;;31.23;4.78;;;;;;;;;;5070707;28;20120;-68
2023/01/05 09:12:35;;;;;;;33.58;5.05;;;;;;;;;;5106738;27;20089;-69
2023/01/05 09:15:01;;;;;;;38.72;5.47;;;;;;;;;;5104854;28;20048;-69
2023/01/05 09:17:27;;;;;;;25.80;4.60;;;;;;;;;;5106238;27;20071;-69
2023/01/05 09:19:54;;;;;;;40.72;5.55;;;;;;;;;;5104039;27;20058;-68
2023/01/05 09:22:20;;;;;;;29.88;4.63;;;;;;;;;;5097218;28;20075;-69
2023/01/05 09:24:46;;;;;;;38.05;5.68;;;;;;;;;;5108804;27;20039;-68
2023/01/05 09:27:12;;;;;;;30.17;4.90;;;;;;;;;;5067223;28;20157;-68
2023/01/05 09:29:39;;;;;;;45.28;7.10;;;;;;;;;;5103501;28;20050;-68
2023/01/05 09:32:06;;;;;;;37.08;6.03;;;;;;;;;;5102959;28;20116;-68
2023/01/05 09:34:32;;;;;;;38.15;6.63;;;;;;;;;;5103217;27;20505;-69
2023/01/05 09:36:58;;;;;;;37.38;6.20;;;;;;;;;;5103953;28;20114;-69
2023/01/05 09:39:24;;;;;;;34.90;5.88;;;;;;;;;;5104503;27;20035;-69
2023/01/05 09:41:51;;;;;;;35.60;5.60;;;;;;;;;;5103758;27;20051;-74
2023/01/05 09:44:26;;;;;;;33.80;6.95;;;;;;;;;;5103769;28;20051;-69
2023/01/05 09:46:54;;;;;;;24.20;4.43;;;;;;;;;;5095080;28;20139;-69
2023/01/05 09:49:21;;;;;;;37.85;5.40;;;;;;;;;;5093190;28;20077;-68
2023/01/05 09:51:48;;;;;;;26.98;4.32;;;;;;;;;;5089057;28;20057;-69
2023/01/05 09:54:17;;;;;;;30.63;4.95;;;;;;;;;;5105253;28;20039;-71
2023/01/05 09:56:45;;;;;;;29.98;4.45;;;;;;;;;;5105926;28;20048;-69
2023/01/05 09:59:12;;;;;;;38.75;5.93;;;;;;;;;;5106821;28;20114;-69
2023/01/05 10:01:39;;;;;;;27.00;4.30;;;;;;;;;;5097424;28;20514;-69
2023/01/05 10:04:09;;;;;;;34.55;4.80;;;;;;;;;;5107842;28;20051;-69
2023/01/05 10:06:38;;;;;;;34.03;5.55;;;;;;;;;;5103780;28;20471;-69
2023/01/05 10:09:05;;;;;;;45.85;5.20;;;;;;;;;;5104817;28;20044;-69
2023/01/05 10:14:30;;;;;;;36.45;4.82;;;;;;;;;;5103655;28;20122;-69
2023/01/05 10:16:56;;;;;;;33.65;6.35;;;;;;;;;;5102451;28;20136;-68
2023/01/05 10:19:23;;;;;;;29.83;4.63;;;;;;;;;;5104729;28;20107;-67
2023/01/05 10:21:54;;;;;;;29.92;6.20;;;;;;;;;;5104670;28;20044;-72
2023/01/05 10:24:27;;;;;;;34.28;5.28;;;;;;;;;;5103356;28;20082;-68
2023/01/05 10:26:53;;;;;;;;;;;;;;;;;;5105571;28;20048;-68
2023/01/05 10:29:23;;;;;;;40.65;5.97;;;;;;;;;;5107948;28;19920;-68
2023/01/05 10:31:59;;;;;;;33.67;5.07;;;;;;;;;;5110106;28;20099;-68
2023/01/05 10:34:45;;;;;;;31.02;4.80;;;;;;;;;;5102852;28;20046;-68
2023/01/05 10:37:21;;;;;;;36.03;5.47;;;;;;;;;;5111617;28;20503;-68
2023/01/05 10:39:55;;;;;;;32.58;5.38;;;;;;;;;;5102318;28;20038;-68
2023/01/05 10:42:21;;;;;;;26.08;5.03;;;;;;;;;;5112059;28;20058;-68
2023/01/05 10:44:48;;;;;;;33.05;5.18;;;;;;;;;;5111484;28;20043;-68
2023/01/05 10:47:15;;;;;;;29.90;4.43;;;;;;;;;;5112243;28;20458;-68
2023/01/05 10:49:43;;;;;;;35.53;5.30;;;;;;;;;;5112362;28;20043;-68
2023/01/05 10:52:14;;;;;;;26.17;3.67;;;;;;;;;;5102003;27;20129;-68
2023/01/05 10:54:41;;;;;;;29.00;4.30;;;;;;;;;;5106740;28;20083;-69
2023/01/05 10:57:25;;;;;;;42.05;4.97;;;;;;;;;;5106524;28;20047;-68
2023/01/05 10:59:56;;;;;;;27.38;4.50;;;;;;;;;;5102918;28;20456;-68
2023/01/05 11:02:23;;;;;;;34.55;5.45;;;;;;;;;;5111896;28;20047;-68
2023/01/05 11:04:50;;;;;;;31.33;4.95;;;;;;;;;;5109964;28;20047;-68
2023/01/05 11:07:16;;;;;;;36.60;5.18;;;;;;;;;;5113005;28;20046;-68
2023/01/05 11:09:43;;;;;;;28.27;4.72;;;;;;;;;;5102452;28;20399;-68
2023/01/05 11:12:17;;;;;;;29.02;5.13;;;;;;;;;;5108118;28;20301;-68
2023/01/05 11:14:43;;;;;;;;;;;;;;;;;;5093739;28;20071;-68
2023/01/05 11:17:15;;;;;;;32.58;4.90;;;;;;;;;;5108997;28;19920;-68
2023/01/05 11:19:43;;;;;;;34.25;5.78;;;;;;;;;;5107348;28;20054;-67
2023/01/05 11:22:28;;;;;;;32.75;4.97;;;;;;;;;;5104515;28;20047;-67
2023/01/05 11:25:12;;;;;;;27.73;6.15;;;;;;;;;;5107517;28;20047;-68
2023/01/05 11:27:39;;;;;;;23.52;4.93;;;;;;;;;;5108163;28;20043;-68
2023/01/05 11:30:17;;;;;;;22.55;4.70;;;;;;;;;;5109014;28;20047;-68
2023/01/05 11:32:44;;;;;;;19.92;3.10;;;;;;;;;;5108056;28;20074;-68
2023/01/05 11:35:21;;;;;;;24.77;3.97;;;;;;;;;;5108535;27;20032;-68
2023/01/05 11:37:48;;;;;;;23.92;4.28;;;;;;;;;;5109445;27;20365;-68
2023/01/05 11:40:15;;;;;;;29.45;5.70;;;;;;;;;;5106723;28;20058;-68
2023/01/05 11:42:43;;;;;;;30.73;4.50;;;;;;;;;;5104399;28;20059;-68
2023/01/05 11:45:20;;;;;;;23.02;4.43;;;;;;;;;;5085106;28;20078;-68
2023/01/05 11:47:48;;;;;;;26.00;3.85;;;;;;;;;;5102676;28;20036;-68
2023/01/05 11:50:20;;;;;;;26.75;4.65;;;;;;;;;;5108076;27;20134;-68
2023/01/05 11:52:49;;;;;;;26.40;4.93;;;;;;;;;;5108175;28;20031;-69
2023/01/05 11:55:19;;;;;;;30.52;6.32;;;;;;;;;;5107593;28;20049;-69
2023/01/05 11:57:52;;;;;;;30.98;5.68;;;;;;;;;;5108358;28;20044;-69
2023/01/05 12:00:26;;;;;;;46.10;5.63;;;;;;;;;;5108307;27;20040;-69
2023/01/05 12:02:59;;;;;;;32.60;4.97;;;;;;;;;;5106238;28;20039;-69
2023/01/05 12:05:30;;;;;;;27.08;4.28;;;;;;;;;;5106750;28;20120;-69
2023/01/05 12:08:00;;;;;;;25.77;4.38;;;;;;;;;;5105981;28;20491;-69
2023/01/05 12:10:41;;;;;;;26.90;4.15;;;;;;;;;;5106418;28;20051;-69
2023/01/05 12:13:23;;;;;;;20.50;3.85;;;;;;;;;;5107836;28;20129;-68
2023/01/05 12:15:54;;;;;;;35.42;5.30;;;;;;;;;;5107788;28;20488;-68
2023/01/05 12:18:34;;;;;;;25.42;4.28;;;;;;;;;;5105693;28;20112;-68
2023/01/05 12:21:12;;;;;;;22.88;5.32;;;;;;;;;;5103943;27;20536;-69
2023/01/05 12:23:38;;;;;;;22.95;4.75;;;;;;;;;;5091974;28;20055;-68
2023/01/05 12:26:04;;;;;;;20.15;3.40;;;;;;;;;;5098598;28;20062;-68
2023/01/05 12:28:42;;;;;;;24.23;3.97;;;;;;;;;;5092801;28;20130;-68
2023/01/05 12:31:27;;;;;;;33.95;6.20;;;;;;;;;;5106706;28;20056;-68
2023/01/05 12:34:03;;;;;;;24.38;4.28;;;;;;;;;;5104203;28;20035;-67
2023/01/05 12:36:29;;;;;;;32.13;5.38;;;;;;;;;;5104520;28;20035;-68
2023/01/05 12:38:58;;;;;;;31.67;4.65;;;;;;;;;;5110448;28;20047;-68
2023/01/05 12:41:32;;;;;;;19.45;4.18;;;;;;;;;;5098738;28;20127;-68
2023/01/05 12:44:14;;;;;;;27.05;4.63;;;;;;;;;;5097402;28;20059;-67
2023/01/05 12:46:46;;;;;;;20.83;4.03;;;;;;;;;;5098769;28;20051;-68
2023/01/05 12:49:17;;;;;;;25.27;4.95;;;;;;;;;;5105401;27;20394;-67
2023/01/05 12:51:47;;;;;;;25.30;4.35;;;;;;;;;;5098766;28;20050;-68
2023/01/05 12:54:27;;;;;;;25.63;4.68;;;;;;;;;;5108909;28;20104;-68
2023/01/05 12:56:56;;;;;;;25.40;5.10;;;;;;;;;;5105774;28;20380;-67
2023/01/05 12:59:33;;;;;;;24.55;3.80;;;;;;;;;;5106131;28;20042;-67
2023/01/05 13:02:00;;;;;;;28.42;4.00;;;;;;;;;;5105591;28;20134;-67
2023/01/05 13:04:38;;;;;;;22.13;5.85;;;;;;;;;;5106490;28;20043;-67
2023/01/05 13:07:07;;;;;;;22.55;4.20;;;;;;;;;;5107059;28;20036;-67
2023/01/05 13:09:35;;;;;;;18.77;3.70;;;;;;;;;;5107557;28;20112;-67
2023/01/05 13:12:05;;;;;;;16.75;4.13;;;;;;;;;;5105883;28;20058;-68
2023/01/05 13:14:33;;;;;;;27.40;3.78;;;;;;;;;;5106082;28;20062;-67
2023/01/05 13:17:04;;;;;;;23.58;4.00;;;;;;;;;;5107321;28;20052;-67
2023/01/05 13:19:30;;;;;;;23.00;3.78;;;;;;;;;;5105348;27;20031;-67
2023/01/05 13:21:57;;;;;;;23.40;6.47;;;;;;;;;;5107508;28;20047;-67
2023/01/05 13:24:29;;;;;;;26.75;5.97;;;;;;;;;;5095981;28;20122;-67
2023/01/05 13:26:56;;;;;;;21.55;3.65;;;;;;;;;;5104778;28;20035;-67
2023/01/05 13:29:24;;;;;;;26.08;4.60;;;;;;;;;;5105425;27;20042;-67
2023/01/05 13:31:53;;;;;;;33.78;4.28;;;;;;;;;;5096436;28;20101;-67
2023/01/05 13:34:38;;;;;;;24.60;4.95;;;;;;;;;;5105948;28;20062;-67
2023/01/05 13:37:13;;;;;;;31.77;5.28;;;;;;;;;;5102390;28;20062;-67
2023/01/05 13:39:41;;;;;;;28.05;5.05;;;;;;;;;;5103844;28;20089;-67
2023/01/05 13:42:18;;;;;;;27.90;4.80;;;;;;;;;;5096860;28;20090;-67
2023/01/05 13:44:51;;;;;;;25.98;4.40;;;;;;;;;;5097635;27;20036;-67
2023/01/05 13:47:24;;;;;;;23.25;3.72;;;;;;;;;;5105971;28;20050;-67
2023/01/05 13:50:06;;;;;;;28.30;4.90;;;;;;;;;;5100873;28;20039;-67
2023/01/05 13:52:46;;;;;;;21.23;4.32;;;;;;;;;;5093784;28;20134;-67
2023/01/05 13:55:14;;;;;;;24.15;4.13;;;;;;;;;;5093876;28;20039;-68
2023/01/05 13:57:42;;;;;;;30.08;5.18;;;;;;;;;;5105852;28;20128;-67
2023/01/05 14:00:29;;;;;;;21.88;4.50;;;;;;;;;;5106237;28;20059;-67
2023/01/05 14:02:58;;;;;;;27.27;3.78;;;;;;;;;;5096942;28;20050;-67
2023/01/05 14:05:29;;;;;;;25.67;4.50;;;;;;;;;;5105357;28;20437;-67
2023/01/05 14:07:56;;;;;;;24.75;4.55;;;;;;;;;;5105510;28;20035;-67
2023/01/05 14:10:24;;;;;;;25.85;4.40;;;;;;;;;;5106505;28;20550;-67
2023/01/05 14:12:53;;;;;;;30.48;5.22;;;;;;;;;;5104473;28;20440;-67
2023/01/05 14:15:23;;;;;;;19.85;5.13;;;;;;;;;;5103752;28;20490;-67
2023/01/05 14:17:50;;;;;;;26.60;4.57;;;;;;;;;;5105555;28;20079;-67
2023/01/05 14:20:31;;;;;;;27.50;4.72;;;;;;;;;;5091165;28;20040;-67
2023/01/05 14:22:58;;;;;;;21.42;3.72;;;;;;;;;;5101188;28;20742;-68
2023/01/05 14:25:34;;;;;;;27.77;5.20;;;;;;;;;;5103164;28;20073;-68
2023/01/05 14:28:16;;;;;;;26.13;4.88;;;;;;;;;;5102841;28;20047;-68
2023/01/05 14:30:42;;;;;;;25.33;5.07;;;;;;;;;;5102631;28;20500;-67
2023/01/05 14:33:09;;;;;;;26.95;5.28;;;;;;;;;;5104508;28;20165;-67
2023/01/05 14:35:36;;;;;;;34.33;4.57;;;;;;;;;;5101542;28;20054;-67
2023/01/05 14:38:07;;;;;;;33.22;4.50;;;;;;;;;;5093007;28;20048;-67
2023/01/05 14:40:37;;;;;;;27.23;4.40;;;;;;;;;;5100448;28;20047;-67
2023/01/05 14:43:06;;;;;;;26.40;4.72;;;;;;;;;;5100837;28;20079;-67
2023/01/05 14:45:35;;;;;;;34.17;5.50;;;;;;;;;;5094052;28;20486;-67
2023/01/05 14:48:02;;;;;;;29.50;4.95;;;;;;;;;;5098739;28;20439;-67
2023/01/05 14:50:29;;;;;;;40.72;5.30;;;;;;;;;;5076446;28;20457;-67
2023/01/05 14:53:00;;;;;;;30.85;4.22;;;;;;;;;;5105100;28;20043;-67
2023/01/05 14:55:28;;;;;;;29.25;4.97;;;;;;;;;;5103609;28;20039;-67
2023/01/05 14:57:56;;;;;;;26.98;4.60;;;;;;;;;;5104932;28;20372;-68
2023/01/05 15:00:30;;;;;;;22.55;3.80;;;;;;;;;;5105879;28;20043;-67
2023/01/05 15:03:17;;;;;;;35.78;4.95;;;;;;;;;;5097994;28;20105;-67
2023/01/05 15:05:54;;;;;;;32.58;5.60;;;;;;;;;;5098752;28;20095;-67
2023/01/05 15:08:28;;;;;;;29.40;4.95;;;;;;;;;;5102198;28;20043;-67
2023/01/05 15:11:01;;;;;;;22.58;4.22;;;;;;;;;;5090780;28;20509;-67
2023/01/05 15:13:29;;;;;;;27.85;5.30;;;;;;;;;;5096339;28;20055;-67
2023/01/05 15:15:55;;;;;;;26.15;4.60;;;;;;;;;;5112329;28;20089;-67